sensor_id;sensor_type;location;lat;lon;timestamp;P1;durP1;ratioP1;P2;durP2;ratioP2
56267;SDS011;42175;46.930;9.532;2023-04-21T00:01:02;3.28;;;1.20;;
56267;SDS011;42175;46.930;9.532;2023-04-21T00:03:32;2.40;;;1.10;;
56267;SDS011;42175;46.930;9.532;2023-04-21T00:06:02;3.22;;;1.55;;
56267;SDS011;42175;46.930;9.532;2023-04-21T00:08:31;3.47;;;1.33;;
56267;SDS011;42175;46.930;9.532;2023-04-21T00:10:57;2.15;;;1.02;;
56267;SDS011;42175;46.930;9.532;2023-04-21T00:13:23;2.03;;;1.25;;
56267;SDS011;42175;46.930;9.532;2023-04-21T00:15:49;4.82;;;1.40;;
56267;SDS011;42175;46.930;9.532;2023-04-21T00:18:15;2.08;;;1.20;;
56267;SDS011;42175;46.930;9.532;2023-04-21T00:20:42;1.88;;;1.20;;
56267;SDS011;42175;46.930;9.532;2023-04-21T00:23:09;2.40;;;1.45;;
56267;SDS011;42175;46.930;9.532;2023-04-21T00:25:35;2.55;;;1.45;;
56267;SDS011;42175;46.930;9.532;2023-04-21T00:28:01;2.53;;;1.05;;
56267;SDS011;42175;46.930;9.532;2023-04-21T00:30:27;1.60;;;1.17;;
56267;SDS011;42175;46.930;9.532;2023-04-21T00:32:53;3.05;;;1.60;;
56267;SDS011;42175;46.930;9.532;2023-04-21T00:35:18;6.13;;;1.10;;
56267;SDS011;42175;46.930;9.532;2023-04-21T00:37:44;7.63;;;1.30;;
56267;SDS011;42175;46.930;9.532;2023-04-21T00:40:10;3.22;;;1.15;;
56267;SDS011;42175;46.930;9.532;2023-04-21T00:42:36;1.90;;;1.10;;
56267;SDS011;42175;46.930;9.532;2023-04-21T00:45:05;1.52;;;1.10;;
56267;SDS011;42175;46.930;9.532;2023-04-21T00:47:31;1.70;;;1.08;;
56267;SDS011;42175;46.930;9.532;2023-04-21T00:49:57;1.73;;;1.05;;
56267;SDS011;42175;46.930;9.532;2023-04-21T00:52:23;1.85;;;0.95;;
56267;SDS011;42175;46.930;9.532;2023-04-21T00:54:50;3.20;;;1.23;;
56267;SDS011;42175;46.930;9.532;2023-04-21T00:57:17;1.77;;;1.13;;
56267;SDS011;42175;46.930;9.532;2023-04-21T00:59:44;2.15;;;1.10;;
56267;SDS011;42175;46.930;9.532;2023-04-21T01:02:10;1.52;;;0.90;;
56267;SDS011;42175;46.930;9.532;2023-04-21T01:04:36;1.95;;;1.08;;
56267;SDS011;42175;46.930;9.532;2023-04-21T01:07:04;2.28;;;1.30;;
56267;SDS011;42175;46.930;9.532;2023-04-21T01:09:32;1.98;;;1.15;;
56267;SDS011;42175;46.930;9.532;2023-04-21T01:12:08;1.88;;;1.10;;
56267;SDS011;42175;46.930;9.532;2023-04-21T01:14:35;2.50;;;1.10;;
56267;SDS011;42175;46.930;9.532;2023-04-21T01:17:02;2.78;;;1.17;;
56267;SDS011;42175;46.930;9.532;2023-04-21T01:19:31;2.08;;;1.23;;
56267;SDS011;42175;46.930;9.532;2023-04-21T01:22:00;1.92;;;0.90;;
56267;SDS011;42175;46.930;9.532;2023-04-21T01:24:36;2.88;;;1.08;;
56267;SDS011;42175;46.930;9.532;2023-04-21T01:29:41;1.88;;;0.95;;
56267;SDS011;42175;46.930;9.532;2023-04-21T01:32:15;1.63;;;1.00;;
56267;SDS011;42175;46.930;9.532;2023-04-21T01:34:46;2.03;;;1.00;;
56267;SDS011;42175;46.930;9.532;2023-04-21T01:37:14;2.40;;;1.20;;
56267;SDS011;42175;46.930;9.532;2023-04-21T01:39:43;2.13;;;1.45;;
56267;SDS011;42175;46.930;9.532;2023-04-21T01:42:11;1.88;;;1.20;;
56267;SDS011;42175;46.930;9.532;2023-04-21T01:44:37;1.77;;;0.90;;
56267;SDS011;42175;46.930;9.532;2023-04-21T01:47:03;3.17;;;0.90;;
56267;SDS011;42175;46.930;9.532;2023-04-21T01:49:30;1.35;;;0.75;;
56267;SDS011;42175;46.930;9.532;2023-04-21T01:51:56;2.50;;;1.10;;
56267;SDS011;42175;46.930;9.532;2023-04-21T01:54:22;2.40;;;1.08;;
56267;SDS011;42175;46.930;9.532;2023-04-21T01:56:47;1.17;;;0.88;;
56267;SDS011;42175;46.930;9.532;2023-04-21T01:59:13;2.13;;;1.08;;
56267;SDS011;42175;46.930;9.532;2023-04-21T02:01:39;2.63;;;0.80;;
56267;SDS011;42175;46.930;9.532;2023-04-21T02:04:05;1.88;;;0.95;;
56267;SDS011;42175;46.930;9.532;2023-04-21T02:06:30;2.58;;;1.20;;
56267;SDS011;42175;46.930;9.532;2023-04-21T02:08:56;1.80;;;1.00;;
56267;SDS011;42175;46.930;9.532;2023-04-21T02:11:25;1.85;;;0.90;;
56267;SDS011;42175;46.930;9.532;2023-04-21T02:13:51;3.15;;;1.10;;
56267;SDS011;42175;46.930;9.532;2023-04-21T02:16:18;1.75;;;1.00;;
56267;SDS011;42175;46.930;9.532;2023-04-21T02:18:45;1.48;;;0.90;;
56267;SDS011;42175;46.930;9.532;2023-04-21T02:21:12;2.13;;;1.05;;
56267;SDS011;42175;46.930;9.532;2023-04-21T02:23:38;1.58;;;0.95;;
56267;SDS011;42175;46.930;9.532;2023-04-21T02:26:04;3.97;;;0.82;;
56267;SDS011;42175;46.930;9.532;2023-04-21T02:28:30;2.80;;;0.70;;
56267;SDS011;42175;46.930;9.532;2023-04-21T02:30:56;2.28;;;0.93;;
56267;SDS011;42175;46.930;9.532;2023-04-21T02:33:21;1.77;;;1.00;;
56267;SDS011;42175;46.930;9.532;2023-04-21T02:35:47;1.75;;;1.02;;
56267;SDS011;42175;46.930;9.532;2023-04-21T02:38:13;1.98;;;1.10;;
56267;SDS011;42175;46.930;9.532;2023-04-21T02:40:38;1.65;;;0.98;;
56267;SDS011;42175;46.930;9.532;2023-04-21T02:43:05;1.23;;;0.80;;
56267;SDS011;42175;46.930;9.532;2023-04-21T02:45:30;1.30;;;0.70;;
56267;SDS011;42175;46.930;9.532;2023-04-21T02:47:56;1.40;;;0.90;;
56267;SDS011;42175;46.930;9.532;2023-04-21T02:50:23;1.75;;;0.90;;
56267;SDS011;42175;46.930;9.532;2023-04-21T02:52:49;2.03;;;0.82;;
56267;SDS011;42175;46.930;9.532;2023-04-21T02:55:15;1.75;;;1.10;;
56267;SDS011;42175;46.930;9.532;2023-04-21T02:57:40;1.60;;;0.80;;
56267;SDS011;42175;46.930;9.532;2023-04-21T03:00:06;1.05;;;0.80;;
56267;SDS011;42175;46.930;9.532;2023-04-21T03:02:33;2.53;;;1.08;;
56267;SDS011;42175;46.930;9.532;2023-04-21T03:04:59;1.70;;;1.00;;
56267;SDS011;42175;46.930;9.532;2023-04-21T03:07:24;1.13;;;0.80;;
56267;SDS011;42175;46.930;9.532;2023-04-21T03:09:50;1.98;;;0.93;;
56267;SDS011;42175;46.930;9.532;2023-04-21T03:12:16;2.45;;;0.98;;
56267;SDS011;42175;46.930;9.532;2023-04-21T03:14:42;1.27;;;0.80;;
56267;SDS011;42175;46.930;9.532;2023-04-21T03:17:07;1.40;;;0.85;;
56267;SDS011;42175;46.930;9.532;2023-04-21T03:19:33;1.73;;;1.00;;
56267;SDS011;42175;46.930;9.532;2023-04-21T03:21:59;1.48;;;0.82;;
56267;SDS011;42175;46.930;9.532;2023-04-21T03:24:24;1.48;;;0.80;;
56267;SDS011;42175;46.930;9.532;2023-04-21T03:26:50;2.47;;;1.27;;
56267;SDS011;42175;46.930;9.532;2023-04-21T03:29:17;1.75;;;0.80;;
56267;SDS011;42175;46.930;9.532;2023-04-21T03:31:42;1.35;;;0.80;;
56267;SDS011;42175;46.930;9.532;2023-04-21T03:34:08;2.35;;;0.80;;
56267;SDS011;42175;46.930;9.532;2023-04-21T03:36:34;1.48;;;1.00;;
56267;SDS011;42175;46.930;9.532;2023-04-21T03:38:59;0.80;;;0.70;;
56267;SDS011;42175;46.930;9.532;2023-04-21T03:41:25;0.90;;;0.70;;
56267;SDS011;42175;46.930;9.532;2023-04-21T03:43:51;2.25;;;0.70;;
56267;SDS011;42175;46.930;9.532;2023-04-21T03:46:20;1.33;;;0.80;;
56267;SDS011;42175;46.930;9.532;2023-04-21T03:48:46;1.52;;;0.82;;
56267;SDS011;42175;46.930;9.532;2023-04-21T03:51:13;1.25;;;0.70;;
56267;SDS011;42175;46.930;9.532;2023-04-21T03:53:39;9.65;;;0.90;;
56267;SDS011;42175;46.930;9.532;2023-04-21T03:56:05;1.27;;;0.73;;
56267;SDS011;42175;46.930;9.532;2023-04-21T03:58:31;1.73;;;0.80;;
56267;SDS011;42175;46.930;9.532;2023-04-21T04:00:56;2.40;;;0.70;;
56267;SDS011;42175;46.930;9.532;2023-04-21T04:03:22;0.85;;;0.60;;
56267;SDS011;42175;46.930;9.532;2023-04-21T04:05:48;2.25;;;0.80;;
56267;SDS011;42175;46.930;9.532;2023-04-21T04:08:13;1.55;;;0.80;;
56267;SDS011;42175;46.930;9.532;2023-04-21T04:10:39;2.45;;;0.60;;
56267;SDS011;42175;46.930;9.532;2023-04-21T04:13:05;2.78;;;0.70;;
56267;SDS011;42175;46.930;9.532;2023-04-21T04:15:30;0.93;;;0.70;;
56267;SDS011;42175;46.930;9.532;2023-04-21T04:17:56;1.02;;;0.63;;
56267;SDS011;42175;46.930;9.532;2023-04-21T04:20:22;1.27;;;0.80;;
56267;SDS011;42175;46.930;9.532;2023-04-21T04:22:47;1.23;;;0.70;;
56267;SDS011;42175;46.930;9.532;2023-04-21T04:25:13;1.65;;;0.77;;
56267;SDS011;42175;46.930;9.532;2023-04-21T04:27:43;1.10;;;0.80;;
56267;SDS011;42175;46.930;9.532;2023-04-21T04:30:10;1.55;;;0.60;;
56267;SDS011;42175;46.930;9.532;2023-04-21T04:32:37;1.10;;;0.65;;
56267;SDS011;42175;46.930;9.532;2023-04-21T04:35:06;2.20;;;0.93;;
56267;SDS011;42175;46.930;9.532;2023-04-21T04:37:36;1.83;;;0.80;;
56267;SDS011;42175;46.930;9.532;2023-04-21T04:40:03;1.15;;;0.70;;
56267;SDS011;42175;46.930;9.532;2023-04-21T04:42:31;1.17;;;0.70;;
56267;SDS011;42175;46.930;9.532;2023-04-21T04:44:57;0.95;;;0.60;;
56267;SDS011;42175;46.930;9.532;2023-04-21T04:47:23;1.45;;;0.80;;
56267;SDS011;42175;46.930;9.532;2023-04-21T04:49:49;0.98;;;0.60;;
56267;SDS011;42175;46.930;9.532;2023-04-21T04:52:15;2.58;;;0.60;;
56267;SDS011;42175;46.930;9.532;2023-04-21T04:54:41;1.13;;;0.60;;
56267;SDS011;42175;46.930;9.532;2023-04-21T04:57:06;1.38;;;0.70;;
56267;SDS011;42175;46.930;9.532;2023-04-21T04:59:32;1.27;;;0.80;;
56267;SDS011;42175;46.930;9.532;2023-04-21T05:01:58;0.77;;;0.50;;
56267;SDS011;42175;46.930;9.532;2023-04-21T05:04:24;2.80;;;0.68;;
56267;SDS011;42175;46.930;9.532;2023-04-21T05:06:49;0.65;;;0.47;;
56267;SDS011;42175;46.930;9.532;2023-04-21T05:09:16;1.77;;;0.75;;
56267;SDS011;42175;46.930;9.532;2023-04-21T05:11:41;1.48;;;0.80;;
56267;SDS011;42175;46.930;9.532;2023-04-21T05:14:07;0.95;;;0.70;;
56267;SDS011;42175;46.930;9.532;2023-04-21T05:16:33;1.30;;;0.75;;
56267;SDS011;42175;46.930;9.532;2023-04-21T05:19:02;1.25;;;0.85;;
56267;SDS011;42175;46.930;9.532;2023-04-21T05:21:28;1.23;;;0.80;;
56267;SDS011;42175;46.930;9.532;2023-04-21T05:23:55;1.52;;;0.80;;
56267;SDS011;42175;46.930;9.532;2023-04-21T05:26:23;1.63;;;0.80;;
56267;SDS011;42175;46.930;9.532;2023-04-21T05:28:49;2.10;;;0.75;;
56267;SDS011;42175;46.930;9.532;2023-04-21T05:31:15;3.35;;;0.80;;
56267;SDS011;42175;46.930;9.532;2023-04-21T05:33:41;2.90;;;0.80;;
56267;SDS011;42175;46.930;9.532;2023-04-21T05:36:07;4.78;;;1.88;;
56267;SDS011;42175;46.930;9.532;2023-04-21T05:38:34;1.90;;;1.00;;
56267;SDS011;42175;46.930;9.532;2023-04-21T05:41:00;2.60;;;0.98;;
56267;SDS011;42175;46.930;9.532;2023-04-21T05:43:26;1.95;;;1.00;;
56267;SDS011;42175;46.930;9.532;2023-04-21T05:45:52;2.80;;;1.10;;
56267;SDS011;42175;46.930;9.532;2023-04-21T05:48:18;1.20;;;0.90;;
56267;SDS011;42175;46.930;9.532;2023-04-21T05:50:43;2.92;;;1.10;;
56267;SDS011;42175;46.930;9.532;2023-04-21T05:53:09;4.78;;;1.10;;
56267;SDS011;42175;46.930;9.532;2023-04-21T05:55:35;2.47;;;1.10;;
56267;SDS011;42175;46.930;9.532;2023-04-21T05:58:01;7.20;;;1.10;;
56267;SDS011;42175;46.930;9.532;2023-04-21T06:00:28;3.40;;;1.40;;
56267;SDS011;42175;46.930;9.532;2023-04-21T06:02:54;4.22;;;1.33;;
56267;SDS011;42175;46.930;9.532;2023-04-21T06:05:20;9.32;;;1.90;;
56267;SDS011;42175;46.930;9.532;2023-04-21T06:07:46;6.78;;;1.50;;
56267;SDS011;42175;46.930;9.532;2023-04-21T06:10:12;6.65;;;1.92;;
56267;SDS011;42175;46.930;9.532;2023-04-21T06:12:38;10.05;;;3.40;;
56267;SDS011;42175;46.930;9.532;2023-04-21T06:15:04;12.57;;;2.80;;
56267;SDS011;42175;46.930;9.532;2023-04-21T06:17:30;9.35;;;1.88;;
56267;SDS011;42175;46.930;9.532;2023-04-21T06:19:56;12.13;;;2.38;;
56267;SDS011;42175;46.930;9.532;2023-04-21T06:22:22;6.55;;;1.77;;
56267;SDS011;42175;46.930;9.532;2023-04-21T06:24:48;9.35;;;1.80;;
56267;SDS011;42175;46.930;9.532;2023-04-21T06:27:14;8.18;;;2.33;;
56267;SDS011;42175;46.930;9.532;2023-04-21T06:29:40;15.05;;;2.97;;
56267;SDS011;42175;46.930;9.532;2023-04-21T06:32:06;7.55;;;2.63;;
56267;SDS011;42175;46.930;9.532;2023-04-21T06:34:32;10.55;;;2.65;;
56267;SDS011;42175;46.930;9.532;2023-04-21T06:36:58;41.70;;;2.55;;
56267;SDS011;42175;46.930;9.532;2023-04-21T06:39:24;6.53;;;2.20;;
56267;SDS011;42175;46.930;9.532;2023-04-21T06:41:50;6.55;;;2.00;;
56267;SDS011;42175;46.930;9.532;2023-04-21T06:44:16;9.93;;;2.83;;
56267;SDS011;42175;46.930;9.532;2023-04-21T06:46:42;6.05;;;2.33;;
56267;SDS011;42175;46.930;9.532;2023-04-21T06:49:07;11.60;;;3.17;;
56267;SDS011;42175;46.930;9.532;2023-04-21T06:51:33;8.88;;;2.42;;
56267;SDS011;42175;46.930;9.532;2023-04-21T06:53:59;5.93;;;2.33;;
56267;SDS011;42175;46.930;9.532;2023-04-21T06:56:26;7.15;;;2.75;;
56267;SDS011;42175;46.930;9.532;2023-04-21T06:58:52;9.52;;;2.60;;
56267;SDS011;42175;46.930;9.532;2023-04-21T07:01:17;10.00;;;1.90;;
56267;SDS011;42175;46.930;9.532;2023-04-21T07:03:43;4.95;;;2.15;;
56267;SDS011;42175;46.930;9.532;2023-04-21T07:06:09;5.00;;;2.50;;
56267;SDS011;42175;46.930;9.532;2023-04-21T07:08:35;10.18;;;2.60;;
56267;SDS011;42175;46.930;9.532;2023-04-21T07:11:01;7.78;;;2.33;;
56267;SDS011;42175;46.930;9.532;2023-04-21T07:13:26;7.35;;;2.28;;
56267;SDS011;42175;46.930;9.532;2023-04-21T07:15:52;5.10;;;2.03;;
56267;SDS011;42175;46.930;9.532;2023-04-21T07:18:18;5.47;;;1.90;;
56267;SDS011;42175;46.930;9.532;2023-04-21T07:20:44;5.35;;;2.08;;
56267;SDS011;42175;46.930;9.532;2023-04-21T07:23:10;5.28;;;2.38;;
56267;SDS011;42175;46.930;9.532;2023-04-21T07:25:36;6.28;;;1.95;;
56267;SDS011;42175;46.930;9.532;2023-04-21T07:28:02;3.70;;;1.77;;
56267;SDS011;42175;46.930;9.532;2023-04-21T07:30:28;4.07;;;1.55;;
56267;SDS011;42175;46.930;9.532;2023-04-21T07:32:54;7.75;;;1.70;;
56267;SDS011;42175;46.930;9.532;2023-04-21T07:35:20;2.95;;;1.63;;
56267;SDS011;42175;46.930;9.532;2023-04-21T07:37:46;6.93;;;1.48;;
56267;SDS011;42175;46.930;9.532;2023-04-21T07:40:11;7.32;;;1.77;;
56267;SDS011;42175;46.930;9.532;2023-04-21T07:42:37;3.80;;;1.38;;
56267;SDS011;42175;46.930;9.532;2023-04-21T07:45:03;3.85;;;1.38;;
56267;SDS011;42175;46.930;9.532;2023-04-21T07:47:29;14.68;;;1.95;;
56267;SDS011;42175;46.930;9.532;2023-04-21T07:49:55;4.93;;;1.40;;
56267;SDS011;42175;46.930;9.532;2023-04-21T07:52:21;4.13;;;1.50;;
56267;SDS011;42175;46.930;9.532;2023-04-21T07:54:47;4.53;;;1.30;;
56267;SDS011;42175;46.930;9.532;2023-04-21T07:57:13;2.60;;;1.20;;
56267;SDS011;42175;46.930;9.532;2023-04-21T07:59:38;5.85;;;1.45;;
56267;SDS011;42175;46.930;9.532;2023-04-21T08:02:04;4.93;;;1.48;;
56267;SDS011;42175;46.930;9.532;2023-04-21T08:04:30;4.22;;;1.55;;
56267;SDS011;42175;46.930;9.532;2023-04-21T08:06:56;3.67;;;1.15;;
56267;SDS011;42175;46.930;9.532;2023-04-21T08:09:21;4.72;;;1.83;;
56267;SDS011;42175;46.930;9.532;2023-04-21T08:11:47;2.90;;;1.48;;
56267;SDS011;42175;46.930;9.532;2023-04-21T08:14:13;4.18;;;1.50;;
56267;SDS011;42175;46.930;9.532;2023-04-21T08:16:39;3.92;;;1.38;;
56267;SDS011;42175;46.930;9.532;2023-04-21T08:19:06;3.17;;;1.25;;
56267;SDS011;42175;46.930;9.532;2023-04-21T08:21:32;4.85;;;1.20;;
56267;SDS011;42175;46.930;9.532;2023-04-21T08:23:58;4.63;;;1.23;;
56267;SDS011;42175;46.930;9.532;2023-04-21T08:26:24;3.63;;;1.08;;
56267;SDS011;42175;46.930;9.532;2023-04-21T08:28:50;2.85;;;1.60;;
56267;SDS011;42175;46.930;9.532;2023-04-21T08:31:17;2.38;;;1.20;;
56267;SDS011;42175;46.930;9.532;2023-04-21T08:33:43;5.10;;;1.50;;
56267;SDS011;42175;46.930;9.532;2023-04-21T08:36:09;3.38;;;1.60;;
56267;SDS011;42175;46.930;9.532;2023-04-21T08:38:38;5.60;;;1.60;;
56267;SDS011;42175;46.930;9.532;2023-04-21T08:41:06;5.15;;;1.52;;
56267;SDS011;42175;46.930;9.532;2023-04-21T08:43:33;3.42;;;1.30;;
56267;SDS011;42175;46.930;9.532;2023-04-21T08:45:59;2.97;;;1.38;;
56267;SDS011;42175;46.930;9.532;2023-04-21T08:48:26;3.40;;;1.17;;
56267;SDS011;42175;46.930;9.532;2023-04-21T08:50:53;4.68;;;1.35;;
56267;SDS011;42175;46.930;9.532;2023-04-21T08:53:19;3.65;;;1.23;;
56267;SDS011;42175;46.930;9.532;2023-04-21T08:55:48;4.22;;;1.42;;
56267;SDS011;42175;46.930;9.532;2023-04-21T08:58:17;3.88;;;1.20;;
56267;SDS011;42175;46.930;9.532;2023-04-21T09:00:42;5.65;;;1.23;;
56267;SDS011;42175;46.930;9.532;2023-04-21T09:03:08;3.08;;;1.30;;
56267;SDS011;42175;46.930;9.532;2023-04-21T09:05:34;3.60;;;1.25;;
56267;SDS011;42175;46.930;9.532;2023-04-21T09:08:11;2.72;;;1.10;;
56267;SDS011;42175;46.930;9.532;2023-04-21T09:10:47;2.33;;;1.15;;
56267;SDS011;42175;46.930;9.532;2023-04-21T09:13:15;2.35;;;1.35;;
56267;SDS011;42175;46.930;9.532;2023-04-21T09:15:43;7.00;;;1.30;;
56267;SDS011;42175;46.930;9.532;2023-04-21T09:18:19;3.15;;;1.30;;
56267;SDS011;42175;46.930;9.532;2023-04-21T09:20:46;4.43;;;1.30;;
56267;SDS011;42175;46.930;9.532;2023-04-21T09:23:14;4.15;;;1.20;;
56267;SDS011;42175;46.930;9.532;2023-04-21T09:25:43;3.90;;;1.27;;
56267;SDS011;42175;46.930;9.532;2023-04-21T09:28:10;3.17;;;1.35;;
56267;SDS011;42175;46.930;9.532;2023-04-21T09:30:39;6.45;;;1.08;;
56267;SDS011;42175;46.930;9.532;2023-04-21T09:33:07;7.57;;;1.25;;
56267;SDS011;42175;46.930;9.532;2023-04-21T09:35:39;4.63;;;1.23;;
56267;SDS011;42175;46.930;9.532;2023-04-21T09:38:09;2.85;;;1.48;;
56267;SDS011;42175;46.930;9.532;2023-04-21T09:40:36;2.70;;;1.23;;
56267;SDS011;42175;46.930;9.532;2023-04-21T09:43:02;4.25;;;1.05;;
56267;SDS011;42175;46.930;9.532;2023-04-21T09:45:28;3.35;;;1.38;;
56267;SDS011;42175;46.930;9.532;2023-04-21T09:47:54;2.08;;;1.15;;
56267;SDS011;42175;46.930;9.532;2023-04-21T09:50:21;2.10;;;0.80;;
56267;SDS011;42175;46.930;9.532;2023-04-21T09:52:51;2.20;;;1.25;;
56267;SDS011;42175;46.930;9.532;2023-04-21T09:55:21;2.65;;;1.13;;
56267;SDS011;42175;46.930;9.532;2023-04-21T09:57:51;1.33;;;0.90;;
56267;SDS011;42175;46.930;9.532;2023-04-21T10:00:19;1.83;;;1.05;;
56267;SDS011;42175;46.930;9.532;2023-04-21T10:02:48;2.15;;;1.27;;
56267;SDS011;42175;46.930;9.532;2023-04-21T10:05:15;5.70;;;0.98;;
56267;SDS011;42175;46.930;9.532;2023-04-21T10:07:41;7.35;;;1.33;;
56267;SDS011;42175;46.930;9.532;2023-04-21T10:10:15;2.13;;;1.20;;
56267;SDS011;42175;46.930;9.532;2023-04-21T10:12:51;1.65;;;1.02;;
56267;SDS011;42175;46.930;9.532;2023-04-21T10:20:56;3.13;;;1.10;;
56267;SDS011;42175;46.930;9.532;2023-04-21T10:26:02;1.30;;;1.00;;
56267;SDS011;42175;46.930;9.532;2023-04-21T10:31:19;2.97;;;1.30;;
56267;SDS011;42175;46.930;9.532;2023-04-21T10:36:32;3.08;;;1.00;;
56267;SDS011;42175;46.930;9.532;2023-04-21T10:39:02;2.70;;;1.13;;
56267;SDS011;42175;46.930;9.532;2023-04-21T10:41:29;5.15;;;1.48;;
56267;SDS011;42175;46.930;9.532;2023-04-21T10:43:56;3.33;;;1.15;;
56267;SDS011;42175;46.930;9.532;2023-04-21T10:46:38;1.92;;;0.90;;
56267;SDS011;42175;46.930;9.532;2023-04-21T10:49:05;2.42;;;1.63;;
56267;SDS011;42175;46.930;9.532;2023-04-21T10:51:32;1.98;;;0.93;;
56267;SDS011;42175;46.930;9.532;2023-04-21T10:54:20;3.42;;;0.95;;
56267;SDS011;42175;46.930;9.532;2023-04-21T10:56:46;2.28;;;1.00;;
56267;SDS011;42175;46.930;9.532;2023-04-21T10:59:15;3.20;;;0.85;;
56267;SDS011;42175;46.930;9.532;2023-04-21T11:01:42;3.13;;;0.93;;
56267;SDS011;42175;46.930;9.532;2023-04-21T11:04:19;2.92;;;0.80;;
56267;SDS011;42175;46.930;9.532;2023-04-21T11:07:04;1.75;;;0.80;;
56267;SDS011;42175;46.930;9.532;2023-04-21T11:09:35;2.15;;;0.90;;
56267;SDS011;42175;46.930;9.532;2023-04-21T11:12:06;1.48;;;0.88;;
56267;SDS011;42175;46.930;9.532;2023-04-21T11:14:37;3.63;;;1.10;;
56267;SDS011;42175;46.930;9.532;2023-04-21T11:17:04;3.00;;;0.90;;
56267;SDS011;42175;46.930;9.532;2023-04-21T11:19:35;1.48;;;0.80;;
56267;SDS011;42175;46.930;9.532;2023-04-21T11:22:02;1.95;;;1.00;;
56267;SDS011;42175;46.930;9.532;2023-04-21T11:24:29;2.35;;;0.90;;
56267;SDS011;42175;46.930;9.532;2023-04-21T11:26:55;1.98;;;1.00;;
56267;SDS011;42175;46.930;9.532;2023-04-21T11:29:22;2.63;;;0.82;;
56267;SDS011;42175;46.930;9.532;2023-04-21T11:31:48;2.88;;;0.93;;
56267;SDS011;42175;46.930;9.532;2023-04-21T11:34:14;2.38;;;0.95;;
56267;SDS011;42175;46.930;9.532;2023-04-21T11:36:45;1.55;;;1.00;;
56267;SDS011;42175;46.930;9.532;2023-04-21T11:39:12;3.33;;;1.77;;
56267;SDS011;42175;46.930;9.532;2023-04-21T11:41:43;2.13;;;1.00;;
56267;SDS011;42175;46.930;9.532;2023-04-21T11:44:12;1.67;;;1.00;;
56267;SDS011;42175;46.930;9.532;2023-04-21T11:46:50;1.40;;;0.80;;
56267;SDS011;42175;46.930;9.532;2023-04-21T11:49:16;3.40;;;1.35;;
56267;SDS011;42175;46.930;9.532;2023-04-21T11:51:42;2.50;;;0.95;;
56267;SDS011;42175;46.930;9.532;2023-04-21T11:54:12;2.55;;;1.20;;
56267;SDS011;42175;46.930;9.532;2023-04-21T11:56:40;1.85;;;1.02;;
56267;SDS011;42175;46.930;9.532;2023-04-21T11:59:07;3.15;;;0.82;;
56267;SDS011;42175;46.930;9.532;2023-04-21T12:04:12;1.35;;;0.80;;
56267;SDS011;42175;46.930;9.532;2023-04-21T12:06:41;2.67;;;1.20;;
56267;SDS011;42175;46.930;9.532;2023-04-21T12:09:09;1.52;;;0.80;;
56267;SDS011;42175;46.930;9.532;2023-04-21T12:11:46;1.60;;;1.02;;
56267;SDS011;42175;46.930;9.532;2023-04-21T12:14:19;2.03;;;0.90;;
56267;SDS011;42175;46.930;9.532;2023-04-21T12:16:51;2.90;;;0.90;;
56267;SDS011;42175;46.930;9.532;2023-04-21T12:19:22;2.17;;;0.90;;
56267;SDS011;42175;46.930;9.532;2023-04-21T12:21:51;1.80;;;0.80;;
56267;SDS011;42175;46.930;9.532;2023-04-21T12:24:20;2.58;;;0.80;;
56267;SDS011;42175;46.930;9.532;2023-04-21T12:26:46;1.75;;;0.80;;
56267;SDS011;42175;46.930;9.532;2023-04-21T12:29:12;1.52;;;0.73;;
56267;SDS011;42175;46.930;9.532;2023-04-21T12:31:38;5.60;;;1.00;;
56267;SDS011;42175;46.930;9.532;2023-04-21T12:34:04;2.65;;;1.35;;
56267;SDS011;42175;46.930;9.532;2023-04-21T12:36:29;1.92;;;0.90;;
56267;SDS011;42175;46.930;9.532;2023-04-21T12:38:55;1.02;;;0.80;;
56267;SDS011;42175;46.930;9.532;2023-04-21T12:41:21;1.70;;;0.80;;
56267;SDS011;42175;46.930;9.532;2023-04-21T12:43:46;2.55;;;0.77;;
56267;SDS011;42175;46.930;9.532;2023-04-21T12:46:12;1.00;;;0.65;;
56267;SDS011;42175;46.930;9.532;2023-04-21T12:48:38;1.33;;;0.80;;
56267;SDS011;42175;46.930;9.532;2023-04-21T12:51:03;2.47;;;0.90;;
56267;SDS011;42175;46.930;9.532;2023-04-21T12:53:30;1.50;;;0.77;;
56267;SDS011;42175;46.930;9.532;2023-04-21T12:55:56;3.88;;;0.98;;
56267;SDS011;42175;46.930;9.532;2023-04-21T12:58:21;0.95;;;0.68;;
56267;SDS011;42175;46.930;9.532;2023-04-21T13:00:47;1.05;;;0.70;;
56267;SDS011;42175;46.930;9.532;2023-04-21T13:03:13;1.00;;;0.70;;
56267;SDS011;42175;46.930;9.532;2023-04-21T13:05:38;1.17;;;0.80;;
56267;SDS011;42175;46.930;9.532;2023-04-21T13:08:04;1.08;;;0.73;;
56267;SDS011;42175;46.930;9.532;2023-04-21T13:10:30;1.30;;;0.80;;
56267;SDS011;42175;46.930;9.532;2023-04-21T13:12:56;3.15;;;0.90;;
56267;SDS011;42175;46.930;9.532;2023-04-21T13:15:21;2.03;;;0.80;;
56267;SDS011;42175;46.930;9.532;2023-04-21T13:17:47;1.23;;;0.80;;
56267;SDS011;42175;46.930;9.532;2023-04-21T13:20:13;1.20;;;0.80;;
56267;SDS011;42175;46.930;9.532;2023-04-21T13:22:39;1.75;;;0.80;;
56267;SDS011;42175;46.930;9.532;2023-04-21T13:25:04;2.60;;;0.65;;
56267;SDS011;42175;46.930;9.532;2023-04-21T13:27:30;1.00;;;0.75;;
56267;SDS011;42175;46.930;9.532;2023-04-21T13:29:57;2.88;;;0.90;;
56267;SDS011;42175;46.930;9.532;2023-04-21T13:32:23;1.52;;;0.70;;
56267;SDS011;42175;46.930;9.532;2023-04-21T13:34:49;1.55;;;0.90;;
56267;SDS011;42175;46.930;9.532;2023-04-21T13:37:15;1.70;;;0.70;;
56267;SDS011;42175;46.930;9.532;2023-04-21T13:39:41;1.75;;;0.80;;
56267;SDS011;42175;46.930;9.532;2023-04-21T13:42:07;1.90;;;0.80;;
56267;SDS011;42175;46.930;9.532;2023-04-21T13:44:32;1.45;;;0.77;;
56267;SDS011;42175;46.930;9.532;2023-04-21T13:46:58;3.08;;;0.88;;
56267;SDS011;42175;46.930;9.532;2023-04-21T13:49:24;1.00;;;0.63;;
56267;SDS011;42175;46.930;9.532;2023-04-21T13:51:50;1.25;;;0.75;;
56267;SDS011;42175;46.930;9.532;2023-04-21T13:54:16;2.03;;;0.82;;
56267;SDS011;42175;46.930;9.532;2023-04-21T13:56:42;2.17;;;0.90;;
56267;SDS011;42175;46.930;9.532;2023-04-21T13:59:07;1.70;;;0.80;;
56267;SDS011;42175;46.930;9.532;2023-04-21T14:01:34;1.33;;;0.70;;
56267;SDS011;42175;46.930;9.532;2023-04-21T14:04:01;0.95;;;0.73;;
56267;SDS011;42175;46.930;9.532;2023-04-21T14:06:27;0.95;;;0.70;;
56267;SDS011;42175;46.930;9.532;2023-04-21T14:08:52;3.75;;;0.90;;
56267;SDS011;42175;46.930;9.532;2023-04-21T14:11:19;2.67;;;1.27;;
56267;SDS011;42175;46.930;9.532;2023-04-21T14:13:45;1.35;;;0.90;;
56267;SDS011;42175;46.930;9.532;2023-04-21T14:16:11;1.10;;;0.88;;
56267;SDS011;42175;46.930;9.532;2023-04-21T14:18:37;2.50;;;1.23;;
56267;SDS011;42175;46.930;9.532;2023-04-21T14:21:08;4.32;;;1.92;;
56267;SDS011;42175;46.930;9.532;2023-04-21T14:23:33;2.25;;;0.95;;
56267;SDS011;42175;46.930;9.532;2023-04-21T14:25:59;1.92;;;0.80;;
56267;SDS011;42175;46.930;9.532;2023-04-21T14:28:25;1.23;;;1.00;;
56267;SDS011;42175;46.930;9.532;2023-04-21T14:30:51;1.75;;;1.00;;
56267;SDS011;42175;46.930;9.532;2023-04-21T14:33:16;1.23;;;0.80;;
56267;SDS011;42175;46.930;9.532;2023-04-21T14:35:42;2.72;;;0.77;;
56267;SDS011;42175;46.930;9.532;2023-04-21T14:38:07;1.67;;;1.00;;
56267;SDS011;42175;46.930;9.532;2023-04-21T14:40:33;1.63;;;1.00;;
56267;SDS011;42175;46.930;9.532;2023-04-21T14:42:59;1.77;;;0.98;;
56267;SDS011;42175;46.930;9.532;2023-04-21T14:45:24;1.27;;;1.00;;
56267;SDS011;42175;46.930;9.532;2023-04-21T14:47:50;1.23;;;0.82;;
56267;SDS011;42175;46.930;9.532;2023-04-21T14:50:16;2.55;;;1.00;;
56267;SDS011;42175;46.930;9.532;2023-04-21T14:52:42;5.30;;;1.10;;
56267;SDS011;42175;46.930;9.532;2023-04-21T14:55:07;1.33;;;0.80;;
56267;SDS011;42175;46.930;9.532;2023-04-21T14:57:33;1.70;;;0.93;;
56267;SDS011;42175;46.930;9.532;2023-04-21T14:59:59;4.10;;;0.90;;
56267;SDS011;42175;46.930;9.532;2023-04-21T15:02:25;1.10;;;0.80;;
56267;SDS011;42175;46.930;9.532;2023-04-21T15:04:51;5.10;;;0.88;;